sensor_id;sensor_type;location;lat;lon;timestamp;P1;durP1;ratioP1;P2;durP2;ratioP2
57087;SDS011;42965;52.846;6.614;2023-02-22T00:01:31;56.72;;;28.67;;
57087;SDS011;42965;52.846;6.614;2023-02-22T00:04:11;61.22;;;30.55;;
57087;SDS011;42965;52.846;6.614;2023-02-22T00:06:39;63.63;;;28.58;;
57087;SDS011;42965;52.846;6.614;2023-02-22T00:09:07;62.95;;;28.90;;
57087;SDS011;42965;52.846;6.614;2023-02-22T00:11:34;57.95;;;27.83;;
57087;SDS011;42965;52.846;6.614;2023-02-22T00:14:03;64.28;;;31.23;;
57087;SDS011;42965;52.846;6.614;2023-02-22T00:16:30;62.13;;;29.98;;
57087;SDS011;42965;52.846;6.614;2023-02-22T00:18:57;55.40;;;28.90;;
57087;SDS011;42965;52.846;6.614;2023-02-22T00:21:24;59.60;;;29.85;;
57087;SDS011;42965;52.846;6.614;2023-02-22T00:23:50;58.35;;;28.38;;
57087;SDS011;42965;52.846;6.614;2023-02-22T00:26:20;59.25;;;29.15;;
57087;SDS011;42965;52.846;6.614;2023-02-22T00:28:49;60.03;;;29.85;;
57087;SDS011;42965;52.846;6.614;2023-02-22T00:31:17;60.42;;;29.25;;
57087;SDS011;42965;52.846;6.614;2023-02-22T00:33:44;60.67;;;28.02;;
57087;SDS011;42965;52.846;6.614;2023-02-22T00:36:11;61.60;;;30.08;;
57087;SDS011;42965;52.846;6.614;2023-02-22T00:38:38;58.05;;;29.83;;
57087;SDS011;42965;52.846;6.614;2023-02-22T00:41:05;61.00;;;30.15;;
57087;SDS011;42965;52.846;6.614;2023-02-22T00:43:41;56.78;;;30.42;;
57087;SDS011;42965;52.846;6.614;2023-02-22T00:46:07;57.97;;;29.23;;
57087;SDS011;42965;52.846;6.614;2023-02-22T00:48:34;58.17;;;28.58;;
57087;SDS011;42965;52.846;6.614;2023-02-22T00:51:00;66.93;;;31.33;;
57087;SDS011;42965;52.846;6.614;2023-02-22T00:53:28;60.95;;;28.98;;
57087;SDS011;42965;52.846;6.614;2023-02-22T00:55:54;67.82;;;31.90;;
57087;SDS011;42965;52.846;6.614;2023-02-22T00:58:21;66.70;;;30.95;;
57087;SDS011;42965;52.846;6.614;2023-02-22T01:00:49;64.47;;;30.25;;
57087;SDS011;42965;52.846;6.614;2023-02-22T01:03:18;63.15;;;29.58;;
57087;SDS011;42965;52.846;6.614;2023-02-22T01:05:53;61.70;;;30.63;;
57087;SDS011;42965;52.846;6.614;2023-02-22T01:08:20;63.00;;;31.08;;
57087;SDS011;42965;52.846;6.614;2023-02-22T01:10:49;71.03;;;32.75;;
57087;SDS011;42965;52.846;6.614;2023-02-22T01:13:18;69.72;;;34.95;;
57087;SDS011;42965;52.846;6.614;2023-02-22T01:15:50;69.93;;;33.95;;
57087;SDS011;42965;52.846;6.614;2023-02-22T01:18:17;67.05;;;33.67;;
57087;SDS011;42965;52.846;6.614;2023-02-22T01:20:43;67.55;;;33.47;;
57087;SDS011;42965;52.846;6.614;2023-02-22T01:23:34;66.85;;;33.72;;
57087;SDS011;42965;52.846;6.614;2023-02-22T01:26:00;67.85;;;35.30;;
57087;SDS011;42965;52.846;6.614;2023-02-22T01:28:29;71.50;;;36.72;;
57087;SDS011;42965;52.846;6.614;2023-02-22T01:30:55;65.97;;;34.58;;
57087;SDS011;42965;52.846;6.614;2023-02-22T01:33:23;64.97;;;33.65;;
57087;SDS011;42965;52.846;6.614;2023-02-22T01:35:51;72.70;;;34.58;;
57087;SDS011;42965;52.846;6.614;2023-02-22T01:38:18;67.10;;;35.25;;
57087;SDS011;42965;52.846;6.614;2023-02-22T01:40:47;60.85;;;32.47;;
57087;SDS011;42965;52.846;6.614;2023-02-22T01:43:18;68.28;;;35.38;;
57087;SDS011;42965;52.846;6.614;2023-02-22T01:45:53;65.70;;;34.80;;
57087;SDS011;42965;52.846;6.614;2023-02-22T01:51:07;74.63;;;34.58;;
57087;SDS011;42965;52.846;6.614;2023-02-22T01:53:54;66.40;;;33.30;;
57087;SDS011;42965;52.846;6.614;2023-02-22T01:56:26;73.93;;;34.50;;
57087;SDS011;42965;52.846;6.614;2023-02-22T01:58:59;73.25;;;33.80;;
57087;SDS011;42965;52.846;6.614;2023-02-22T02:01:31;73.47;;;34.92;;
57087;SDS011;42965;52.846;6.614;2023-02-22T02:03:59;77.88;;;35.45;;
57087;SDS011;42965;52.846;6.614;2023-02-22T02:06:32;71.15;;;34.53;;
57087;SDS011;42965;52.846;6.614;2023-02-22T02:09:06;79.65;;;34.55;;
57087;SDS011;42965;52.846;6.614;2023-02-22T02:11:37;69.55;;;34.15;;
57087;SDS011;42965;52.846;6.614;2023-02-22T02:14:06;65.70;;;32.20;;
57087;SDS011;42965;52.846;6.614;2023-02-22T02:17:09;69.28;;;34.00;;
57087;SDS011;42965;52.846;6.614;2023-02-22T02:22:10;74.30;;;33.33;;
57087;SDS011;42965;52.846;6.614;2023-02-22T02:38:09;70.03;;;34.08;;
57087;SDS011;42965;52.846;6.614;2023-02-22T02:40:47;71.65;;;32.60;;
57087;SDS011;42965;52.846;6.614;2023-02-22T02:46:14;65.32;;;32.30;;
57087;SDS011;42965;52.846;6.614;2023-02-22T02:48:53;63.30;;;32.85;;
57087;SDS011;42965;52.846;6.614;2023-02-22T02:51:28;70.65;;;33.55;;
57087;SDS011;42965;52.846;6.614;2023-02-22T02:53:59;73.30;;;33.40;;
57087;SDS011;42965;52.846;6.614;2023-02-22T02:56:27;67.20;;;32.70;;
57087;SDS011;42965;52.846;6.614;2023-02-22T02:58:54;71.30;;;33.55;;
57087;SDS011;42965;52.846;6.614;2023-02-22T03:09:44;68.80;;;32.13;;
57087;SDS011;42965;52.846;6.614;2023-02-22T03:20:38;75.90;;;34.58;;
57087;SDS011;42965;52.846;6.614;2023-02-22T03:23:15;74.15;;;34.10;;
57087;SDS011;42965;52.846;6.614;2023-02-22T03:25:55;74.50;;;34.50;;
57087;SDS011;42965;52.846;6.614;2023-02-22T03:28:29;79.07;;;34.67;;
57087;SDS011;42965;52.846;6.614;2023-02-22T03:31:03;77.07;;;34.60;;
57087;SDS011;42965;52.846;6.614;2023-02-22T03:33:56;80.97;;;36.38;;
57087;SDS011;42965;52.846;6.614;2023-02-22T03:36:32;78.47;;;37.22;;
57087;SDS011;42965;52.846;6.614;2023-02-22T03:39:04;80.43;;;36.38;;
57087;SDS011;42965;52.846;6.614;2023-02-22T03:41:37;77.75;;;36.08;;
57087;SDS011;42965;52.846;6.614;2023-02-22T03:44:13;77.95;;;35.88;;
57087;SDS011;42965;52.846;6.614;2023-02-22T03:46:43;71.35;;;34.83;;
57087;SDS011;42965;52.846;6.614;2023-02-22T03:49:16;75.28;;;34.55;;
57087;SDS011;42965;52.846;6.614;2023-02-22T03:51:55;69.40;;;33.42;;
57087;SDS011;42965;52.846;6.614;2023-02-22T03:54:22;70.88;;;35.67;;
57087;SDS011;42965;52.846;6.614;2023-02-22T03:56:51;67.80;;;35.95;;
57087;SDS011;42965;52.846;6.614;2023-02-22T03:59:21;72.47;;;34.60;;
57087;SDS011;42965;52.846;6.614;2023-02-22T04:01:52;77.55;;;34.85;;
57087;SDS011;42965;52.846;6.614;2023-02-22T04:04:19;70.93;;;35.95;;
57087;SDS011;42965;52.846;6.614;2023-02-22T04:06:48;74.65;;;36.88;;
57087;SDS011;42965;52.846;6.614;2023-02-22T04:09:18;69.63;;;37.67;;
57087;SDS011;42965;52.846;6.614;2023-02-22T04:11:45;65.88;;;36.78;;
57087;SDS011;42965;52.846;6.614;2023-02-22T04:14:12;70.00;;;37.65;;
57087;SDS011;42965;52.846;6.614;2023-02-22T04:16:40;66.75;;;38.10;;
57087;SDS011;42965;52.846;6.614;2023-02-22T04:19:09;63.72;;;36.83;;
57087;SDS011;42965;52.846;6.614;2023-02-22T04:21:43;69.55;;;38.55;;
57087;SDS011;42965;52.846;6.614;2023-02-22T04:24:33;68.03;;;37.88;;
57087;SDS011;42965;52.846;6.614;2023-02-22T04:26:59;71.00;;;38.80;;
57087;SDS011;42965;52.846;6.614;2023-02-22T04:29:26;65.45;;;38.30;;
57087;SDS011;42965;52.846;6.614;2023-02-22T04:31:52;67.32;;;38.50;;
57087;SDS011;42965;52.846;6.614;2023-02-22T04:34:18;69.07;;;37.67;;
57087;SDS011;42965;52.846;6.614;2023-02-22T04:36:45;67.78;;;39.13;;
57087;SDS011;42965;52.846;6.614;2023-02-22T04:39:13;71.20;;;40.28;;
57087;SDS011;42965;52.846;6.614;2023-02-22T04:41:40;67.05;;;38.05;;
57087;SDS011;42965;52.846;6.614;2023-02-22T04:44:07;79.68;;;40.88;;
57087;SDS011;42965;52.846;6.614;2023-02-22T04:46:34;75.80;;;39.75;;
57087;SDS011;42965;52.846;6.614;2023-02-22T04:49:01;71.43;;;40.58;;
57087;SDS011;42965;52.846;6.614;2023-02-22T04:51:31;76.75;;;41.95;;
57087;SDS011;42965;52.846;6.614;2023-02-22T04:54:04;79.70;;;42.80;;
57087;SDS011;42965;52.846;6.614;2023-02-22T04:56:33;75.72;;;41.70;;
57087;SDS011;42965;52.846;6.614;2023-02-22T04:59:04;83.50;;;44.28;;
57087;SDS011;42965;52.846;6.614;2023-02-22T05:01:31;93.78;;;46.60;;
57087;SDS011;42965;52.846;6.614;2023-02-22T05:04:03;89.60;;;45.38;;
57087;SDS011;42965;52.846;6.614;2023-02-22T05:06:30;86.57;;;45.60;;
57087;SDS011;42965;52.846;6.614;2023-02-22T05:08:57;88.38;;;45.60;;
57087;SDS011;42965;52.846;6.614;2023-02-22T05:11:28;88.25;;;45.97;;
57087;SDS011;42965;52.846;6.614;2023-02-22T05:13:55;80.88;;;43.92;;
57087;SDS011;42965;52.846;6.614;2023-02-22T05:16:21;88.70;;;45.00;;
57087;SDS011;42965;52.846;6.614;2023-02-22T05:18:49;92.25;;;46.17;;
57087;SDS011;42965;52.846;6.614;2023-02-22T05:21:17;91.00;;;45.95;;
57087;SDS011;42965;52.846;6.614;2023-02-22T05:23:44;95.28;;;43.75;;
57087;SDS011;42965;52.846;6.614;2023-02-22T05:26:11;86.45;;;43.38;;
57087;SDS011;42965;52.846;6.614;2023-02-22T05:28:37;96.82;;;45.92;;
57087;SDS011;42965;52.846;6.614;2023-02-22T05:31:04;97.95;;;46.90;;
57087;SDS011;42965;52.846;6.614;2023-02-22T05:33:32;96.35;;;43.72;;
57087;SDS011;42965;52.846;6.614;2023-02-22T05:35:59;100.60;;;46.60;;
57087;SDS011;42965;52.846;6.614;2023-02-22T05:38:28;101.78;;;45.75;;
57087;SDS011;42965;52.846;6.614;2023-02-22T05:40:57;104.13;;;46.30;;
57087;SDS011;42965;52.846;6.614;2023-02-22T05:43:24;106.68;;;48.20;;
57087;SDS011;42965;52.846;6.614;2023-02-22T05:45:50;103.30;;;50.78;;
57087;SDS011;42965;52.846;6.614;2023-02-22T05:48:17;99.13;;;46.70;;
57087;SDS011;42965;52.846;6.614;2023-02-22T05:50:43;103.05;;;51.67;;
57087;SDS011;42965;52.846;6.614;2023-02-22T05:53:12;102.25;;;48.20;;
57087;SDS011;42965;52.846;6.614;2023-02-22T05:55:38;98.35;;;48.53;;
57087;SDS011;42965;52.846;6.614;2023-02-22T05:58:07;101.40;;;49.42;;
57087;SDS011;42965;52.846;6.614;2023-02-22T06:00:34;106.40;;;49.30;;
57087;SDS011;42965;52.846;6.614;2023-02-22T06:03:02;105.05;;;48.42;;
57087;SDS011;42965;52.846;6.614;2023-02-22T06:05:30;106.07;;;52.72;;
57087;SDS011;42965;52.846;6.614;2023-02-22T06:07:57;103.15;;;50.08;;
57087;SDS011;42965;52.846;6.614;2023-02-22T06:10:24;101.70;;;47.67;;
57087;SDS011;42965;52.846;6.614;2023-02-22T06:12:56;104.85;;;49.30;;
57087;SDS011;42965;52.846;6.614;2023-02-22T06:15:25;107.57;;;52.05;;
57087;SDS011;42965;52.846;6.614;2023-02-22T06:17:52;105.10;;;47.95;;
57087;SDS011;42965;52.846;6.614;2023-02-22T06:20:21;103.45;;;50.03;;
57087;SDS011;42965;52.846;6.614;2023-02-22T06:22:51;102.03;;;49.10;;
57087;SDS011;42965;52.846;6.614;2023-02-22T06:25:23;116.18;;;51.78;;
57087;SDS011;42965;52.846;6.614;2023-02-22T06:27:58;104.03;;;47.10;;
57087;SDS011;42965;52.846;6.614;2023-02-22T06:30:26;110.80;;;50.55;;
57087;SDS011;42965;52.846;6.614;2023-02-22T06:32:53;106.82;;;51.25;;
57087;SDS011;42965;52.846;6.614;2023-02-22T06:35:20;105.63;;;49.88;;
57087;SDS011;42965;52.846;6.614;2023-02-22T06:37:47;113.35;;;50.17;;
57087;SDS011;42965;52.846;6.614;2023-02-22T06:40:15;114.82;;;52.08;;
57087;SDS011;42965;52.846;6.614;2023-02-22T06:42:42;112.82;;;52.88;;
57087;SDS011;42965;52.846;6.614;2023-02-22T06:45:08;116.65;;;53.33;;
57087;SDS011;42965;52.846;6.614;2023-02-22T06:47:36;114.60;;;51.88;;
57087;SDS011;42965;52.846;6.614;2023-02-22T06:50:07;106.25;;;50.58;;
57087;SDS011;42965;52.846;6.614;2023-02-22T06:52:43;110.75;;;53.05;;
57087;SDS011;42965;52.846;6.614;2023-02-22T06:55:09;109.10;;;50.22;;
57087;SDS011;42965;52.846;6.614;2023-02-22T06:57:35;116.40;;;52.35;;
57087;SDS011;42965;52.846;6.614;2023-02-22T07:00:02;109.40;;;51.03;;
57087;SDS011;42965;52.846;6.614;2023-02-22T07:02:41;110.10;;;50.42;;
57087;SDS011;42965;52.846;6.614;2023-02-22T07:05:09;111.13;;;50.78;;
57087;SDS011;42965;52.846;6.614;2023-02-22T07:07:37;109.95;;;51.25;;
57087;SDS011;42965;52.846;6.614;2023-02-22T07:10:18;109.95;;;49.47;;
57087;SDS011;42965;52.846;6.614;2023-02-22T07:12:47;109.57;;;51.63;;
57087;SDS011;42965;52.846;6.614;2023-02-22T07:15:20;112.45;;;53.20;;
57087;SDS011;42965;52.846;6.614;2023-02-22T07:17:48;112.88;;;51.90;;
57087;SDS011;42965;52.846;6.614;2023-02-22T07:20:16;112.68;;;55.13;;
57087;SDS011;42965;52.846;6.614;2023-02-22T07:22:50;105.28;;;51.80;;
57087;SDS011;42965;52.846;6.614;2023-02-22T07:25:18;110.88;;;50.10;;
57087;SDS011;42965;52.846;6.614;2023-02-22T07:27:55;110.53;;;52.35;;
57087;SDS011;42965;52.846;6.614;2023-02-22T07:30:23;112.95;;;52.13;;
57087;SDS011;42965;52.846;6.614;2023-02-22T07:32:50;116.68;;;51.47;;
57087;SDS011;42965;52.846;6.614;2023-02-22T07:35:28;110.80;;;51.83;;
57087;SDS011;42965;52.846;6.614;2023-02-22T07:37:55;110.68;;;50.38;;
57087;SDS011;42965;52.846;6.614;2023-02-22T07:40:22;104.78;;;49.20;;
57087;SDS011;42965;52.846;6.614;2023-02-22T07:45:23;107.30;;;49.08;;
57087;SDS011;42965;52.846;6.614;2023-02-22T07:47:50;116.10;;;52.92;;
57087;SDS011;42965;52.846;6.614;2023-02-22T07:50:19;109.53;;;51.97;;
57087;SDS011;42965;52.846;6.614;2023-02-22T07:52:49;105.25;;;48.22;;
57087;SDS011;42965;52.846;6.614;2023-02-22T07:55:22;108.18;;;49.80;;
57087;SDS011;42965;52.846;6.614;2023-02-22T07:57:52;107.78;;;48.53;;
57087;SDS011;42965;52.846;6.614;2023-02-22T08:00:36;109.28;;;49.72;;
57087;SDS011;42965;52.846;6.614;2023-02-22T08:03:04;114.80;;;52.35;;
57087;SDS011;42965;52.846;6.614;2023-02-22T08:05:36;111.03;;;50.03;;
57087;SDS011;42965;52.846;6.614;2023-02-22T08:08:20;105.78;;;49.40;;
57087;SDS011;42965;52.846;6.614;2023-02-22T08:11:04;113.30;;;49.25;;
57087;SDS011;42965;52.846;6.614;2023-02-22T08:13:31;116.53;;;49.50;;
57087;SDS011;42965;52.846;6.614;2023-02-22T08:15:57;108.18;;;50.50;;
57087;SDS011;42965;52.846;6.614;2023-02-22T08:18:24;99.45;;;45.53;;
57087;SDS011;42965;52.846;6.614;2023-02-22T08:20:51;111.68;;;50.28;;
57087;SDS011;42965;52.846;6.614;2023-02-22T08:23:18;119.05;;;52.72;;
57087;SDS011;42965;52.846;6.614;2023-02-22T08:25:47;109.18;;;51.72;;
57087;SDS011;42965;52.846;6.614;2023-02-22T08:28:17;107.85;;;53.65;;
57087;SDS011;42965;52.846;6.614;2023-02-22T08:30:45;106.65;;;51.72;;
57087;SDS011;42965;52.846;6.614;2023-02-22T08:33:12;102.32;;;46.72;;
57087;SDS011;42965;52.846;6.614;2023-02-22T08:35:41;107.82;;;49.45;;
57087;SDS011;42965;52.846;6.614;2023-02-22T08:38:43;111.82;;;51.28;;
57087;SDS011;42965;52.846;6.614;2023-02-22T08:41:03;107.50;;;48.30;;
57087;SDS011;42965;52.846;6.614;2023-02-22T08:43:29;112.20;;;51.33;;
57087;SDS011;42965;52.846;6.614;2023-02-22T08:45:56;106.80;;;52.25;;
57087;SDS011;42965;52.846;6.614;2023-02-22T08:48:22;107.70;;;50.53;;
57087;SDS011;42965;52.846;6.614;2023-02-22T08:50:49;106.95;;;49.60;;
57087;SDS011;42965;52.846;6.614;2023-02-22T08:53:15;105.85;;;51.38;;
57087;SDS011;42965;52.846;6.614;2023-02-22T08:55:42;108.90;;;51.60;;
57087;SDS011;42965;52.846;6.614;2023-02-22T08:58:09;113.15;;;51.05;;
57087;SDS011;42965;52.846;6.614;2023-02-22T09:00:39;123.20;;;53.28;;
57087;SDS011;42965;52.846;6.614;2023-02-22T09:03:07;116.00;;;52.47;;
57087;SDS011;42965;52.846;6.614;2023-02-22T09:05:38;115.40;;;52.60;;
57087;SDS011;42965;52.846;6.614;2023-02-22T09:08:05;116.93;;;52.53;;
57087;SDS011;42965;52.846;6.614;2023-02-22T09:10:33;117.78;;;54.92;;
57087;SDS011;42965;52.846;6.614;2023-02-22T09:13:04;117.47;;;49.70;;
57087;SDS011;42965;52.846;6.614;2023-02-22T09:15:32;112.63;;;48.92;;
57087;SDS011;42965;52.846;6.614;2023-02-22T09:18:01;125.50;;;51.13;;
57087;SDS011;42965;52.846;6.614;2023-02-22T09:20:27;107.78;;;47.75;;
57087;SDS011;42965;52.846;6.614;2023-02-22T09:23:04;121.70;;;53.72;;
57087;SDS011;42965;52.846;6.614;2023-02-22T09:25:31;116.20;;;51.38;;
57087;SDS011;42965;52.846;6.614;2023-02-22T09:28:05;115.68;;;49.00;;
57087;SDS011;42965;52.846;6.614;2023-02-22T09:30:33;111.45;;;49.13;;
57087;SDS011;42965;52.846;6.614;2023-02-22T09:33:04;114.93;;;50.15;;
57087;SDS011;42965;52.846;6.614;2023-02-22T09:35:35;124.75;;;50.90;;
57087;SDS011;42965;52.846;6.614;2023-02-22T09:38:02;119.32;;;52.72;;
57087;SDS011;42965;52.846;6.614;2023-02-22T09:40:31;122.55;;;52.83;;
57087;SDS011;42965;52.846;6.614;2023-02-22T09:45:53;125.82;;;55.10;;
57087;SDS011;42965;52.846;6.614;2023-02-22T09:54:28;132.40;;;54.97;;
57087;SDS011;42965;52.846;6.614;2023-02-22T09:57:02;131.80;;;56.15;;
57087;SDS011;42965;52.846;6.614;2023-02-22T09:59:55;129.07;;;53.58;;
57087;SDS011;42965;52.846;6.614;2023-02-22T10:02:51;123.65;;;52.60;;
57087;SDS011;42965;52.846;6.614;2023-02-22T10:05:35;115.18;;;49.90;;
57087;SDS011;42965;52.846;6.614;2023-02-22T10:08:07;128.48;;;55.22;;
57087;SDS011;42965;52.846;6.614;2023-02-22T10:10:38;126.63;;;51.50;;
57087;SDS011;42965;52.846;6.614;2023-02-22T10:16:33;123.38;;;51.25;;
57087;SDS011;42965;52.846;6.614;2023-02-22T10:22:05;130.75;;;54.33;;
57087;SDS011;42965;52.846;6.614;2023-02-22T10:32:28;130.48;;;53.92;;
57087;SDS011;42965;52.846;6.614;2023-02-22T10:35:00;140.02;;;53.33;;
57087;SDS011;42965;52.846;6.614;2023-02-22T10:37:31;135.70;;;55.72;;
57087;SDS011;42965;52.846;6.614;2023-02-22T10:40:12;131.95;;;53.00;;
57087;SDS011;42965;52.846;6.614;2023-02-22T10:42:43;145.52;;;55.65;;
57087;SDS011;42965;52.846;6.614;2023-02-22T10:45:18;135.23;;;53.35;;
57087;SDS011;42965;52.846;6.614;2023-02-22T10:47:46;145.65;;;53.13;;
57087;SDS011;42965;52.846;6.614;2023-02-22T10:50:13;141.70;;;52.15;;
57087;SDS011;42965;52.846;6.614;2023-02-22T10:52:41;128.32;;;48.50;;
57087;SDS011;42965;52.846;6.614;2023-02-22T10:55:13;138.60;;;51.20;;
57087;SDS011;42965;52.846;6.614;2023-02-22T10:57:45;134.40;;;52.33;;
57087;SDS011;42965;52.846;6.614;2023-02-22T11:00:23;130.20;;;50.40;;
57087;SDS011;42965;52.846;6.614;2023-02-22T11:02:57;133.30;;;50.65;;
57087;SDS011;42965;52.846;6.614;2023-02-22T11:05:27;131.75;;;50.53;;
57087;SDS011;42965;52.846;6.614;2023-02-22T11:10:47;126.03;;;46.00;;
57087;SDS011;42965;52.846;6.614;2023-02-22T11:15:57;124.93;;;48.53;;
57087;SDS011;42965;52.846;6.614;2023-02-22T11:18:30;126.40;;;47.00;;
57087;SDS011;42965;52.846;6.614;2023-02-22T11:21:20;108.57;;;44.75;;
57087;SDS011;42965;52.846;6.614;2023-02-22T11:23:47;105.68;;;44.90;;
57087;SDS011;42965;52.846;6.614;2023-02-22T11:26:18;102.75;;;42.67;;
57087;SDS011;42965;52.846;6.614;2023-02-22T11:28:46;91.72;;;41.53;;
57087;SDS011;42965;52.846;6.614;2023-02-22T11:31:22;97.43;;;41.17;;
57087;SDS011;42965;52.846;6.614;2023-02-22T11:36:30;95.10;;;42.90;;
57087;SDS011;42965;52.846;6.614;2023-02-22T11:39:10;97.57;;;44.40;;
57087;SDS011;42965;52.846;6.614;2023-02-22T11:41:47;96.18;;;40.55;;
57087;SDS011;42965;52.846;6.614;2023-02-22T11:46:52;93.20;;;40.33;;
57087;SDS011;42965;52.846;6.614;2023-02-22T11:49:30;86.70;;;39.85;;
57087;SDS011;42965;52.846;6.614;2023-02-22T11:52:07;91.32;;;40.00;;
57087;SDS011;42965;52.846;6.614;2023-02-22T12:00:22;80.72;;;39.00;;
57087;SDS011;42965;52.846;6.614;2023-02-22T12:25:35;76.85;;;38.10;;
57087;SDS011;42965;52.846;6.614;2023-02-22T12:28:17;74.68;;;36.72;;
57087;SDS011;42965;52.846;6.614;2023-02-22T12:30:50;74.63;;;38.30;;
57087;SDS011;42965;52.846;6.614;2023-02-22T12:33:26;76.45;;;36.63;;
57087;SDS011;42965;52.846;6.614;2023-02-22T12:35:57;69.68;;;36.20;;
57087;SDS011;42965;52.846;6.614;2023-02-22T12:38:42;71.38;;;39.28;;
57087;SDS011;42965;52.846;6.614;2023-02-22T12:41:27;67.38;;;35.35;;
57087;SDS011;42965;52.846;6.614;2023-02-22T12:46:52;73.82;;;36.95;;
57087;SDS011;42965;52.846;6.614;2023-02-22T12:49:38;67.95;;;35.50;;
57087;SDS011;42965;52.846;6.614;2023-02-22T12:54:51;67.88;;;34.75;;
57087;SDS011;42965;52.846;6.614;2023-02-22T13:00:26;63.78;;;35.35;;
57087;SDS011;42965;52.846;6.614;2023-02-22T13:05:54;57.20;;;33.70;;
57087;SDS011;42965;52.846;6.614;2023-02-22T13:16:51;57.15;;;32.05;;
57087;SDS011;42965;52.846;6.614;2023-02-22T13:19:33;57.53;;;31.88;;
57087;SDS011;42965;52.846;6.614;2023-02-22T13:22:23;53.70;;;31.20;;
57087;SDS011;42965;52.846;6.614;2023-02-22T13:25:10;56.10;;;30.55;;
57087;SDS011;42965;52.846;6.614;2023-02-22T13:30:49;55.47;;;30.85;;
57087;SDS011;42965;52.846;6.614;2023-02-22T13:41:55;51.15;;;31.17;;
57087;SDS011;42965;52.846;6.614;2023-02-22T13:52:52;55.88;;;33.78;;
57087;SDS011;42965;52.846;6.614;2023-02-22T13:55:25;56.60;;;32.85;;
57087;SDS011;42965;52.846;6.614;2023-02-22T13:58:04;52.08;;;31.38;;
57087;SDS011;42965;52.846;6.614;2023-02-22T14:14:07;57.28;;;31.35;;
57087;SDS011;42965;52.846;6.614;2023-02-22T14:16:26;55.97;;;32.95;;
57087;SDS011;42965;52.846;6.614;2023-02-22T14:19:10;53.05;;;32.97;;
57087;SDS011;42965;52.846;6.614;2023-02-22T14:21:56;47.45;;;31.35;;
57087;SDS011;42965;52.846;6.614;2023-02-22T14:24:28;51.50;;;31.85;;
57087;SDS011;42965;52.846;6.614;2023-02-22T14:27:07;47.63;;;29.60;;
57087;SDS011;42965;52.846;6.614;2023-02-22T14:29:34;50.40;;;31.05;;
57087;SDS011;42965;52.846;6.614;2023-02-22T14:32:10;53.60;;;32.35;;
57087;SDS011;42965;52.846;6.614;2023-02-22T14:34:49;49.05;;;31.73;;
57087;SDS011;42965;52.846;6.614;2023-02-22T14:37:29;50.40;;;32.00;;
57087;SDS011;42965;52.846;6.614;2023-02-22T14:40:18;53.35;;;32.55;;
57087;SDS011;42965;52.846;6.614;2023-02-22T14:42:47;49.42;;;31.58;;
57087;SDS011;42965;52.846;6.614;2023-02-22T14:45:24;51.35;;;32.10;;
57087;SDS011;42965;52.846;6.614;2023-02-22T14:50:56;51.20;;;32.08;;
57087;SDS011;42965;52.846;6.614;2023-02-22T14:53:34;48.50;;;30.67;;
57087;SDS011;42965;52.846;6.614;2023-02-22T14:56:15;50.63;;;32.88;;
57087;SDS011;42965;52.846;6.614;2023-02-22T15:01:38;50.67;;;31.17;;
57087;SDS011;42965;52.846;6.614;2023-02-22T15:04:28;49.58;;;31.63;;
57087;SDS011;42965;52.846;6.614;2023-02-22T15:06:56;50.22;;;31.73;;
57087;SDS011;42965;52.846;6.614;2023-02-22T15:09:27;51.95;;;31.88;;
57087;SDS011;42965;52.846;6.614;2023-02-22T15:14:29;50.03;;;30.48;;
57087;SDS011;42965;52.846;6.614;2023-02-22T15:17:02;53.35;;;31.65;;
57087;SDS011;42965;52.846;6.614;2023-02-22T15:19:36;46.45;;;29.30;;
57087;SDS011;42965;52.846;6.614;2023-02-22T15:22:16;46.97;;;28.73;;
57087;SDS011;42965;52.846;6.614;2023-02-22T15:24:47;42.58;;;28.35;;
57087;SDS011;42965;52.846;6.614;2023-02-22T15:27:24;43.90;;;27.00;;
57087;SDS011;42965;52.846;6.614;2023-02-22T15:29:55;46.75;;;27.95;;
57087;SDS011;42965;52.846;6.614;2023-02-22T15:32:34;42.50;;;28.00;;
57087;SDS011;42965;52.846;6.614;2023-02-22T15:35:13;48.67;;;30.27;;
57087;SDS011;42965;52.846;6.614;2023-02-22T15:38:02;45.45;;;29.30;;
57087;SDS011;42965;52.846;6.614;2023-02-22T15:40:33;47.53;;;28.85;;
57087;SDS011;42965;52.846;6.614;2023-02-22T15:43:01;42.67;;;27.92;;
57087;SDS011;42965;52.846;6.614;2023-02-22T15:45:33;48.15;;;30.00;;
57087;SDS011;42965;52.846;6.614;2023-02-22T15:48:02;45.50;;;30.05;;
57087;SDS011;42965;52.846;6.614;2023-02-22T15:50:30;45.97;;;30.00;;
57087;SDS011;42965;52.846;6.614;2023-02-22T15:53:00;45.65;;;29.85;;
57087;SDS011;42965;52.846;6.614;2023-02-22T15:55:32;44.70;;;28.70;;
57087;SDS011;42965;52.846;6.614;2023-02-22T16:03:42;46.53;;;29.95;;
57087;SDS011;42965;52.846;6.614;2023-02-22T16:06:31;46.83;;;29.27;;
57087;SDS011;42965;52.846;6.614;2023-02-22T16:11:37;48.47;;;30.10;;
57087;SDS011;42965;52.846;6.614;2023-02-22T16:19:50;50.90;;;29.80;;
57087;SDS011;42965;52.846;6.614;2023-02-22T16:35:39;51.60;;;28.95;;
57087;SDS011;42965;52.846;6.614;2023-02-22T16:38:06;51.15;;;31.60;;
57087;SDS011;42965;52.846;6.614;2023-02-22T16:43:17;53.88;;;32.35;;
57087;SDS011;42965;52.846;6.614;2023-02-22T16:45:45;50.47;;;29.77;;
57087;SDS011;42965;52.846;6.614;2023-02-22T16:48:16;50.60;;;32.97;;
57087;SDS011;42965;52.846;6.614;2023-02-22T16:50:52;59.05;;;34.20;;
57087;SDS011;42965;52.846;6.614;2023-02-22T16:53:23;59.15;;;35.40;;
57087;SDS011;42965;52.846;6.614;2023-02-22T16:55:51;54.85;;;33.33;;
57087;SDS011;42965;52.846;6.614;2023-02-22T16:58:25;57.40;;;33.47;;
57087;SDS011;42965;52.846;6.614;2023-02-22T17:00:57;61.03;;;33.45;;
57087;SDS011;42965;52.846;6.614;2023-02-22T17:03:26;64.68;;;36.15;;
57087;SDS011;42965;52.846;6.614;2023-02-22T17:05:52;58.30;;;35.28;;
57087;SDS011;42965;52.846;6.614;2023-02-22T17:08:18;59.35;;;34.17;;
57087;SDS011;42965;52.846;6.614;2023-02-22T17:10:45;62.42;;;36.65;;
57087;SDS011;42965;52.846;6.614;2023-02-22T17:13:12;71.90;;;37.20;;
57087;SDS011;42965;52.846;6.614;2023-02-22T17:15:38;64.03;;;34.25;;
57087;SDS011;42965;52.846;6.614;2023-02-22T17:18:10;61.10;;;33.67;;
57087;SDS011;42965;52.846;6.614;2023-02-22T17:20:41;58.50;;;32.95;;
57087;SDS011;42965;52.846;6.614;2023-02-22T17:23:14;67.38;;;35.33;;
57087;SDS011;42965;52.846;6.614;2023-02-22T17:26:14;65.93;;;34.78;;
57087;SDS011;42965;52.846;6.614;2023-02-22T17:28:38;62.25;;;35.00;;
57087;SDS011;42965;52.846;6.614;2023-02-22T17:31:05;62.20;;;35.13;;
57087;SDS011;42965;52.846;6.614;2023-02-22T17:33:33;58.70;;;32.83;;
57087;SDS011;42965;52.846;6.614;2023-02-22T17:36:02;58.15;;;34.03;;
57087;SDS011;42965;52.846;6.614;2023-02-22T17:38:30;62.22;;;34.65;;
57087;SDS011;42965;52.846;6.614;2023-02-22T17:40:57;62.90;;;34.22;;
57087;SDS011;42965;52.846;6.614;2023-02-22T17:43:28;63.88;;;36.10;;
57087;SDS011;42965;52.846;6.614;2023-02-22T17:45:55;62.55;;;34.72;;
57087;SDS011;42965;52.846;6.614;2023-02-22T17:48:22;63.05;;;35.08;;
57087;SDS011;42965;52.846;6.614;2023-02-22T17:50:48;64.13;;;36.92;;
57087;SDS011;42965;52.846;6.614;2023-02-22T17:53:15;65.40;;;35.33;;
57087;SDS011;42965;52.846;6.614;2023-02-22T17:55:46;70.80;;;36.80;;